createdAt,value
2023-04-11T00:00:36.104Z,92508.63
2023-04-11T00:03:02.707Z,92508.63
2023-04-11T00:05:32.726Z,92502.28
2023-04-11T00:07:59.205Z,92487.56
2023-04-11T00:10:25.695Z,92484.66
2023-04-11T00:12:56.349Z,92489.63
2023-04-11T00:15:26.869Z,92502.00
2023-04-11T00:17:53.895Z,92495.47
2023-04-11T00:20:21.103Z,92483.47
2023-04-11T00:22:47.753Z,92487.47
2023-04-11T00:25:15.291Z,92486.75
2023-04-11T00:27:41.690Z,92453.94
2023-04-11T00:30:08.443Z,92440.00
2023-04-11T00:32:34.893Z,92429.03
2023-04-11T00:35:01.815Z,92429.56
2023-04-11T00:37:28.334Z,92415.13
2023-04-11T00:39:56.137Z,92417.50
2023-04-11T00:42:22.896Z,92417.22
2023-04-11T00:44:50.776Z,92408.31
2023-04-11T00:47:18.242Z,92433.78
2023-04-11T00:49:45.687Z,92419.09
2023-04-11T00:52:13.648Z,92410.16
2023-04-11T00:54:40.311Z,92391.75
2023-04-11T00:57:07.828Z,92394.09
2023-04-11T00:59:35.155Z,92381.25
2023-04-11T01:02:01.964Z,92395.94
2023-04-11T01:04:55.099Z,92413.81
2023-04-11T01:07:23.157Z,92419.59
2023-04-11T01:09:49.966Z,92417.22
2023-04-11T01:12:17.380Z,92416.19
2023-04-11T01:14:47.678Z,92397.53
2023-04-11T01:17:15.376Z,92430.34
2023-04-11T01:19:42.628Z,92419.06
2023-04-11T01:22:10.874Z,92454.25
2023-04-11T01:24:37.614Z,92422.75
2023-04-11T01:27:04.320Z,92414.88
2023-04-11T01:29:31.688Z,92395.69
2023-04-11T01:31:58.300Z,92401.25
2023-04-11T01:34:28.197Z,92423.28
2023-04-11T01:36:54.969Z,92392.31
2023-04-11T01:39:21.452Z,92409.38
2023-04-11T01:41:48.912Z,92387.13
2023-04-11T01:44:15.708Z,92376.13
2023-04-11T01:46:43.235Z,92380.38
2023-04-11T01:49:09.805Z,92402.16
2023-04-11T01:51:36.328Z,92392.19
2023-04-11T01:54:02.732Z,92387.16
2023-04-11T01:56:29.183Z,92405.53
2023-04-11T01:58:58.905Z,92412.09
2023-04-11T02:01:25.664Z,92410.03
2023-04-11T02:03:52.294Z,92412.38
2023-04-11T02:06:18.832Z,92410.31
2023-04-11T02:08:45.365Z,92406.38
2023-04-11T02:11:11.833Z,92399.31
2023-04-11T02:13:38.372Z,92405.06
2023-04-11T02:16:14.940Z,92406.13
2023-04-11T02:18:43.284Z,92393.53
2023-04-11T02:21:10.152Z,92381.50
2023-04-11T02:23:37.308Z,92382.03
2023-04-11T02:26:05.733Z,92365.25
2023-04-11T02:28:32.341Z,92373.09
2023-04-11T02:30:59.168Z,92373.09
2023-04-11T02:33:26.175Z,92376.22
2023-04-11T02:35:52.674Z,92386.19
2023-04-11T02:38:20.986Z,92386.72
2023-04-11T02:40:47.570Z,92372.56
2023-04-11T02:43:14.169Z,92367.63
2023-04-11T02:45:41.296Z,92367.84
2023-04-11T02:48:08.330Z,92375.44
2023-04-11T02:50:40.936Z,92378.84
2023-04-11T02:53:07.752Z,92402.72
2023-04-11T02:55:36.758Z,92377.81
2023-04-11T02:58:03.275Z,92394.31
2023-04-11T03:00:29.926Z,92383.06
2023-04-11T03:03:02.980Z,92363.94
2023-04-11T03:05:33.893Z,92364.19
2023-04-11T03:08:00.412Z,92359.47
2023-04-11T03:10:30.900Z,92373.34
2023-04-11T03:12:58.831Z,92363.94
2023-04-11T03:15:25.379Z,92376.22
2023-04-11T03:17:51.873Z,92363.13
2023-04-11T03:20:19.623Z,92376.75
2023-04-11T03:22:49.433Z,92383.06
2023-04-11T03:25:17.581Z,92396.69
2023-04-11T03:27:46.270Z,92386.22
2023-04-11T03:30:14.311Z,92403.00
2023-04-11T03:32:42.815Z,92391.97
2023-04-11T03:35:10.908Z,92384.91
2023-04-11T03:37:41.004Z,92376.50
2023-04-11T03:40:10.759Z,92365.22
2023-04-11T03:42:40.760Z,92379.13
2023-04-11T03:45:10.748Z,92375.47
2023-04-11T03:47:38.396Z,92382.53
2023-04-11T03:50:06.598Z,92390.91
2023-04-11T03:52:38.942Z,92393.81
2023-04-11T03:55:10.604Z,92404.28
2023-04-11T03:57:37.956Z,92405.63
2023-04-11T04:00:07.926Z,92410.84
2023-04-11T04:02:41.848Z,92404.56
2023-04-11T04:05:11.622Z,92387.50
2023-04-11T04:07:39.920Z,92376.50
2023-04-11T04:10:13.387Z,92393.00
2023-04-11T04:12:41.848Z,92390.38
2023-04-11T04:15:14.933Z,92409.78
2023-04-11T04:17:44.064Z,92401.13
2023-04-11T04:20:17.265Z,92411.34
2023-04-11T04:22:49.351Z,92420.28
2023-04-11T04:25:20.618Z,92393.00
2023-04-11T04:27:48.971Z,92411.84
2023-04-11T04:30:15.782Z,92394.84
2023-04-11T04:33:01.500Z,92400.84
2023-04-11T04:35:30.091Z,92411.09
2023-04-11T04:38:06.048Z,92404.53
2023-04-11T04:40:58.524Z,92443.56
2023-04-11T04:43:27.123Z,92456.16
2023-04-11T04:46:05.629Z,92469.31
2023-04-11T04:48:40.008Z,92475.63
2023-04-11T04:51:07.658Z,92498.19
2023-04-11T04:53:38.790Z,92479.56
2023-04-11T04:56:07.296Z,92496.03
2023-04-11T04:58:38.001Z,92509.50
2023-04-11T05:01:09.080Z,92505.25
2023-04-11T05:03:38.693Z,92522.28
2023-04-11T05:06:09.689Z,92526.63
2023-04-11T05:08:37.328Z,92528.94
2023-04-11T05:11:06.384Z,92532.50
2023-04-11T05:13:34.140Z,92541.56
2023-04-11T05:16:02.336Z,92542.66
2023-04-11T05:18:30.564Z,92553.47
2023-04-11T05:20:57.543Z,92547.06
2023-04-11T05:23:29.932Z,92558.91
2023-04-11T05:25:59.953Z,92572.41
2023-04-11T05:28:26.704Z,92560.78
2023-04-11T05:30:53.777Z,92553.81
2023-04-11T05:33:23.256Z,92562.66
2023-04-11T05:35:50.086Z,92558.06
2023-04-11T05:38:17.496Z,92558.94
2023-04-11T05:40:43.905Z,92557.22
2023-04-11T05:43:13.483Z,92568.50
2023-04-11T05:45:47.460Z,92568.22
2023-04-11T05:48:16.241Z,92573.41
2023-04-11T05:50:42.959Z,92582.16
2023-04-11T05:53:09.484Z,92582.63
2023-04-11T05:55:36.592Z,92590.44
2023-04-11T05:58:03.287Z,92579.31
2023-04-11T06:00:31.671Z,92587.41
2023-04-11T06:03:00.012Z,92595.22
2023-04-11T06:05:26.831Z,92595.91
2023-04-11T06:07:53.435Z,92596.72
2023-04-11T06:10:20.037Z,92591.28
2023-04-11T06:12:46.472Z,92592.75
2023-04-11T06:15:13.867Z,92577.34
2023-04-11T06:17:40.403Z,92580.81
2023-04-11T06:20:08.349Z,92590.47
2023-04-11T06:22:34.773Z,92593.38
2023-04-11T06:25:01.237Z,92589.91
2023-04-11T06:27:27.868Z,92586.50
2023-04-11T06:29:54.344Z,92585.34
2023-04-11T06:32:21.655Z,92590.47
2023-04-11T06:34:48.088Z,92610.03
2023-04-11T06:37:14.949Z,92605.25
2023-04-11T06:39:41.370Z,92621.38
2023-04-11T06:42:07.815Z,92621.72
2023-04-11T06:44:34.574Z,92625.34
2023-04-11T06:47:01.443Z,92623.59
2023-04-11T06:49:31.291Z,92621.03
2023-04-11T06:51:59.329Z,92602.03
2023-04-11T06:54:25.909Z,92612.88
2023-04-11T06:56:52.441Z,92622.38
2023-04-11T06:59:20.491Z,92618.19
2023-04-11T07:01:47.564Z,92620.22
2023-04-11T07:04:14.207Z,92630.28
2023-04-11T07:06:40.803Z,92612.38
2023-04-11T07:09:07.457Z,92624.31
2023-04-11T07:11:33.920Z,92651.88
2023-04-11T07:14:00.723Z,92643.53
2023-04-11T07:16:27.409Z,92641.81
2023-04-11T07:18:54.788Z,92642.19
2023-04-11T07:21:21.339Z,92638.16
2023-04-11T07:23:48.256Z,92639.63
2023-04-11T07:26:16.845Z,92639.41
2023-04-11T07:28:44.928Z,92626.94
2023-04-11T07:31:12.661Z,92620.63
2023-04-11T07:33:42.461Z,92626.34
2023-04-11T07:36:09.565Z,92633.88
2023-04-11T07:38:37.607Z,92629.69
2023-04-11T07:41:05.265Z,92637.50
2023-04-11T07:43:32.049Z,92631.91
2023-04-11T07:45:58.842Z,92641.53
2023-04-11T07:48:28.003Z,92641.00
2023-04-11T07:50:55.277Z,92642.66
2023-04-11T07:53:22.520Z,92645.53
2023-04-11T07:55:49.023Z,92648.41
2023-04-11T07:58:15.665Z,92659.44
2023-04-11T08:00:42.097Z,92647.88
2023-04-11T08:03:10.281Z,92650.28
2023-04-11T08:05:37.926Z,92661.44
2023-04-11T08:08:04.975Z,92652.72
2023-04-11T08:10:31.940Z,92652.81
2023-04-11T08:12:58.738Z,92658.19
2023-04-11T08:15:26.417Z,92659.13
2023-04-11T08:17:56.487Z,92656.94
2023-04-11T08:20:24.019Z,92649.63
2023-04-11T08:22:50.575Z,92654.91
2023-04-11T08:25:22.669Z,92657.66
2023-04-11T08:27:50.775Z,92674.56
2023-04-11T08:30:17.814Z,92665.72
2023-04-11T08:32:44.532Z,92666.94
2023-04-11T08:35:11.276Z,92657.81
2023-04-11T08:37:37.880Z,92647.59
2023-04-11T08:40:06.912Z,92658.41
2023-04-11T08:42:34.249Z,92657.06
2023-04-11T08:45:08.627Z,92658.94
2023-04-11T08:47:36.429Z,92664.38
2023-04-11T08:50:03.926Z,92670.44
2023-04-11T08:52:30.968Z,92662.84
2023-04-11T08:54:57.375Z,92661.56
2023-04-11T08:57:31.413Z,92664.06
2023-04-11T09:00:00.686Z,92663.19
2023-04-11T09:02:27.761Z,92664.44
2023-04-11T09:04:54.963Z,92663.28
2023-04-11T09:07:22.110Z,92675.03
2023-04-11T09:09:48.557Z,92666.44
2023-04-11T09:12:15.257Z,92675.53
2023-04-11T09:14:42.029Z,92672.41
2023-04-11T09:17:15.905Z,92670.91
2023-04-11T09:19:42.416Z,92673.91
2023-04-11T09:22:09.122Z,92679.22
2023-04-11T09:24:36.646Z,92665.25
2023-04-11T09:27:15.657Z,92665.09
2023-04-11T09:29:48.821Z,92678.47
2023-04-11T09:32:32.677Z,92667.69
2023-04-11T09:35:16.533Z,92666.03
2023-04-11T09:37:44.975Z,92671.81
2023-04-11T09:40:12.072Z,92688.53
2023-04-11T09:42:38.943Z,92690.22
2023-04-11T09:45:06.137Z,92692.91
2023-04-11T09:47:33.564Z,92676.91
2023-04-11T09:50:00.361Z,92677.63
2023-04-11T09:52:27.215Z,92666.81
2023-04-11T09:54:54.412Z,92671.19
2023-04-11T09:57:22.671Z,92671.84
2023-04-11T09:59:49.845Z,92671.84
2023-04-11T10:02:16.318Z,92678.22
2023-04-11T10:04:43.217Z,92686.06
2023-04-11T10:07:14.180Z,92690.75
2023-04-11T10:09:43.061Z,92690.91
2023-04-11T10:12:09.512Z,92687.53
2023-04-11T10:14:38.784Z,92675.53
2023-04-11T10:17:21.928Z,92691.28
2023-04-11T10:19:56.352Z,92691.16
2023-04-11T10:22:43.917Z,92679.75
2023-04-11T10:25:20.990Z,92683.50
2023-04-11T10:27:49.259Z,92680.94
2023-04-11T10:30:16.185Z,92692.31
2023-04-11T10:33:21.210Z,92690.97
2023-04-11T10:35:58.148Z,92690.31
2023-04-11T10:38:36.816Z,92691.03
2023-04-11T10:41:28.502Z,92683.03
2023-04-11T10:44:24.919Z,92673.16
2023-04-11T10:46:55.962Z,92683.34
2023-04-11T10:49:39.318Z,92696.81
2023-04-11T10:52:21.340Z,92686.38
2023-04-11T10:54:52.286Z,92697.91
2023-04-11T10:57:19.552Z,92689.53
2023-04-11T10:59:51.961Z,92684.50
2023-04-11T11:02:21.927Z,92691.88
2023-04-11T11:04:49.363Z,92691.03
2023-04-11T11:07:17.312Z,92681.59
2023-04-11T11:09:49.117Z,92680.88
2023-04-11T11:12:17.026Z,92692.13
2023-04-11T11:14:45.623Z,92687.69
2023-04-11T11:17:13.637Z,92688.00
2023-04-11T11:19:48.061Z,92685.34
2023-04-11T11:22:16.189Z,92677.72
2023-04-11T11:24:42.653Z,92686.44
2023-04-11T11:27:22.476Z,92693.53
2023-04-11T11:29:48.948Z,92697.22
2023-04-11T11:32:28.687Z,92709.56
2023-04-11T11:34:57.338Z,92701.69
2023-04-11T11:37:23.891Z,92704.31
2023-04-11T11:39:51.235Z,92707.72
2023-04-11T11:42:18.103Z,92690.38
2023-04-11T11:44:44.562Z,92692.47
2023-04-11T11:47:15.400Z,92695.63
2023-04-11T11:49:53.153Z,92703.25
2023-04-11T11:52:36.736Z,92687.50
2023-04-11T11:55:06.885Z,92683.75
2023-04-11T11:57:34.738Z,92684.75
2023-04-11T12:00:05.748Z,92683.44
2023-04-11T12:02:34.378Z,92681.09
2023-04-11T12:05:04.155Z,92685.69
2023-04-11T12:07:35.693Z,92679.97
2023-04-11T12:10:08.940Z,92688.94
2023-04-11T12:12:37.164Z,92703.72
2023-04-11T12:15:10.872Z,92702.69
2023-04-11T12:17:38.226Z,92695.81
2023-04-11T12:20:10.544Z,92697.97
2023-04-11T12:22:37.772Z,92694.28
2023-04-11T12:25:11.705Z,92708.47
2023-04-11T12:27:39.892Z,92693.75
2023-04-11T12:30:07.235Z,92690.03
2023-04-11T12:32:34.432Z,92705.03
2023-04-11T12:35:01.987Z,92700.97
2023-04-11T12:37:28.535Z,92697.41
2023-04-11T12:39:54.970Z,92702.38
2023-04-11T12:42:24.229Z,92699.34
2023-04-11T12:44:53.511Z,92698.66
2023-04-11T12:47:19.937Z,92698.13
2023-04-11T12:49:46.349Z,92705.22
2023-04-11T12:52:12.776Z,92709.91
2023-04-11T12:54:39.210Z,92727.84
2023-04-11T12:57:05.764Z,92725.84
2023-04-11T12:59:32.601Z,92712.72
2023-04-11T13:01:59.480Z,92701.84
2023-04-11T13:04:26.137Z,92706.31
2023-04-11T13:06:52.649Z,92709.47
2023-04-11T13:09:19.091Z,92704.72
2023-04-11T13:11:45.698Z,92713.13
2023-04-11T13:14:12.178Z,92717.38
2023-04-11T13:16:38.687Z,92710.06
2023-04-11T13:19:07.300Z,92731.09
2023-04-11T13:21:33.711Z,92722.41
2023-04-11T13:24:00.150Z,92712.16
2023-04-11T13:26:26.592Z,92716.38
2023-04-11T13:28:53.034Z,92703.72
2023-04-11T13:31:19.703Z,92699.75
2023-04-11T13:33:47.907Z,92700.50
2023-04-11T13:36:14.401Z,92714.78
2023-04-11T13:38:41.028Z,92706.56
2023-04-11T13:41:07.547Z,92683.56
2023-04-11T13:43:33.993Z,92683.56
2023-04-11T13:46:00.509Z,92701.00
2023-04-11T13:48:27.015Z,92702.97
2023-04-11T13:50:57.192Z,92697.22
2023-04-11T13:53:26.817Z,92704.91
2023-04-11T13:55:53.290Z,92700.38
2023-04-11T13:58:19.774Z,92692.13
2023-04-11T14:00:46.653Z,92675.47
2023-04-11T14:03:15.323Z,92693.31
2023-04-11T14:05:41.851Z,92687.72
2023-04-11T14:08:08.289Z,92694.72
2023-04-11T14:10:34.724Z,92688.28
2023-04-11T14:13:02.221Z,92678.69
2023-04-11T14:15:28.653Z,92685.06
2023-04-11T14:17:55.404Z,92684.09
2023-04-11T14:20:21.873Z,92682.22
2023-04-11T14:22:48.344Z,92676.75
2023-04-11T14:25:15.660Z,92688.72
2023-04-11T14:27:42.183Z,92681.75
2023-04-11T14:30:09.896Z,92674.66
2023-04-11T14:32:36.833Z,92672.28
2023-04-11T14:35:04.727Z,92678.81
2023-04-11T14:37:40.354Z,92684.47
2023-04-11T14:40:10.701Z,92682.03
2023-04-11T14:42:37.826Z,92684.72
2023-04-11T14:45:05.820Z,92682.50
2023-04-11T14:47:32.584Z,92675.53
2023-04-11T14:49:59.110Z,92675.28
2023-04-11T14:52:25.848Z,92663.56
2023-04-11T14:54:52.394Z,92661.94
2023-04-11T14:57:18.885Z,92667.00
2023-04-11T14:59:45.299Z,92655.53
2023-04-11T15:02:11.888Z,92643.91
2023-04-11T15:04:38.479Z,92648.47
2023-04-11T15:07:04.962Z,92653.50
2023-04-11T15:09:31.573Z,92650.72
2023-04-11T15:11:58.046Z,92644.44
2023-04-11T15:14:29.274Z,92646.72
2023-04-11T15:16:56.404Z,92649.47
2023-04-11T15:19:23.129Z,92643.63
2023-04-11T15:21:49.570Z,92639.09
2023-04-11T15:24:16.966Z,92648.59
2023-04-11T15:26:44.618Z,92639.56
2023-04-11T15:29:15.658Z,92645.16
2023-04-11T15:31:42.189Z,92640.38
2023-04-11T15:34:08.688Z,92641.66
2023-04-11T15:36:38.337Z,92638.69
2023-04-11T15:39:05.163Z,92639.88
2023-04-11T15:41:34.267Z,92648.91
2023-04-11T15:44:00.713Z,92645.06
2023-04-11T15:46:27.209Z,92635.44
2023-04-11T15:48:53.663Z,92619.75
2023-04-11T15:51:20.213Z,92619.66
2023-04-11T15:53:48.277Z,92616.34
2023-04-11T15:56:14.734Z,92610.84
2023-04-11T15:58:41.951Z,92622.84
2023-04-11T16:01:20.903Z,92616.03
2023-04-11T16:03:48.049Z,92620.28
2023-04-11T16:06:14.878Z,92614.47
2023-04-11T16:08:41.350Z,92613.66
2023-04-11T16:11:07.873Z,92613.34
2023-04-11T16:13:34.340Z,92613.38
2023-04-11T16:16:00.864Z,92613.06
2023-04-11T16:18:27.496Z,92609.63
2023-04-11T16:20:53.996Z,92603.81
2023-04-11T16:23:20.423Z,92602.75
2023-04-11T16:25:46.836Z,92607.31
2023-04-11T16:28:14.141Z,92609.22
2023-04-11T16:30:40.577Z,92610.75
2023-04-11T16:33:07.403Z,92605.41
2023-04-11T16:35:33.969Z,92606.81
2023-04-11T16:38:00.616Z,92602.28
2023-04-11T16:40:27.105Z,92596.03
2023-04-11T16:42:53.548Z,92597.59
2023-04-11T16:45:20.303Z,92589.16
2023-04-11T16:47:46.770Z,92599.78
2023-04-11T16:50:13.198Z,92603.59
2023-04-11T16:52:40.454Z,92598.91
2023-04-11T16:55:07.154Z,92594.81
2023-04-11T16:57:33.804Z,92595.53
2023-04-11T17:00:01.030Z,92594.22
2023-04-11T17:02:27.674Z,92590.94
2023-04-11T17:04:54.158Z,92590.69
2023-04-11T17:07:20.608Z,92591.22
2023-04-11T17:09:48.392Z,92590.13
2023-04-11T17:12:14.839Z,92578.59
2023-04-11T17:14:41.253Z,92586.25
2023-04-11T17:17:07.788Z,92581.28
2023-04-11T17:19:34.297Z,92587.31
2023-04-11T17:22:01.002Z,92585.78
2023-04-11T17:24:27.459Z,92580.84
2023-04-11T17:26:53.868Z,92588.72
2023-04-11T17:29:20.324Z,92587.66
2023-04-11T17:31:47.107Z,92583.75
2023-04-11T17:34:13.660Z,92580.06
2023-04-11T17:36:42.811Z,92584.25
2023-04-11T17:39:16.897Z,92578.22
2023-04-11T17:41:45.265Z,92587.41
2023-04-11T17:44:11.988Z,92580.34
2023-04-11T17:46:38.714Z,92577.72
2023-04-11T17:49:05.226Z,92571.41
2023-04-11T17:51:31.660Z,92570.34
2023-04-11T17:53:58.242Z,92580.03
2023-04-11T17:56:25.484Z,92577.66
2023-04-11T17:58:52.913Z,92571.88
2023-04-11T18:01:19.465Z,92568.22
2023-04-11T18:03:47.039Z,92567.66
2023-04-11T18:06:13.601Z,92568.19
2023-04-11T18:11:09.609Z,92569.25
2023-04-11T18:13:36.033Z,92567.16
2023-04-11T18:16:02.496Z,92565.84
2023-04-11T18:18:28.928Z,92564.78
2023-04-11T18:20:55.489Z,92570.56
2023-04-11T18:23:21.954Z,92567.91
2023-04-11T18:25:48.375Z,92566.31
2023-04-11T18:28:14.797Z,92562.41
2023-04-11T18:30:41.196Z,92566.31
2023-04-11T18:33:08.195Z,92567.63
2023-04-11T18:35:34.749Z,92571.03
2023-04-11T18:38:02.544Z,92569.94
2023-04-11T18:40:29.662Z,92574.94
2023-04-11T18:42:56.833Z,92580.19
2023-04-11T18:45:24.156Z,92581.19
2023-04-11T18:47:51.097Z,92581.69
2023-04-11T18:50:18.656Z,92579.53
2023-04-11T18:52:46.421Z,92578.47
2023-04-11T18:55:14.867Z,92574.25
2023-04-11T18:57:43.327Z,92565.84
2023-04-11T19:00:20.458Z,92561.41
2023-04-11T19:02:50.175Z,92562.94
2023-04-11T19:05:17.955Z,92565.00
2023-04-11T19:07:45.762Z,92572.31
2023-04-11T19:10:12.677Z,92572.56
2023-04-11T19:12:39.488Z,92573.06
2023-04-11T19:15:07.869Z,92563.28
2023-04-11T19:17:38.593Z,92568.28
2023-04-11T19:20:16.468Z,92555.66
2023-04-11T19:22:43.244Z,92565.59
2023-04-11T19:25:11.068Z,92561.41
2023-04-11T19:27:40.139Z,92559.00
2023-04-11T19:30:08.639Z,92551.13
2023-04-11T19:32:38.555Z,92550.59
2023-04-11T19:35:08.528Z,92546.16
2023-04-11T19:37:35.117Z,92544.53
2023-04-11T19:40:02.193Z,92542.19
2023-04-11T19:42:32.923Z,92543.22
2023-04-11T19:44:59.483Z,92533.00
2023-04-11T19:47:25.956Z,92539.25
2023-04-11T19:49:53.564Z,92535.53
2023-04-11T19:52:19.983Z,92529.28
2023-04-11T19:54:46.463Z,92529.53
2023-04-11T19:57:12.867Z,92528.19
2023-04-11T19:59:39.291Z,92531.00
2023-04-11T20:02:06.012Z,92524.72
2023-04-11T20:04:32.547Z,92519.47
2023-04-11T20:07:00.756Z,92514.53
2023-04-11T20:09:29.735Z,92511.91
2023-04-11T20:11:56.789Z,92509.22
2023-04-11T20:14:23.231Z,92504.50
2023-04-11T20:16:49.679Z,92502.16
2023-04-11T20:19:16.134Z,92498.75
2023-04-11T20:21:42.546Z,92494.53
2023-04-11T20:24:12.240Z,92496.13
2023-04-11T20:26:38.680Z,92497.16
2023-04-11T20:29:06.364Z,92492.44
2023-04-11T20:31:32.889Z,92486.16
2023-04-11T20:33:59.657Z,92488.28
2023-04-11T20:36:27.394Z,92483.59
2023-04-11T20:38:55.524Z,92478.38
2023-04-11T20:41:22.300Z,92465.03
2023-04-11T20:43:48.896Z,92465.00
2023-04-11T20:46:17.754Z,92460.03
2023-04-11T20:48:45.894Z,92450.91
2023-04-11T20:51:12.332Z,92445.69
2023-04-11T20:53:38.791Z,92444.63
2023-04-11T20:56:05.509Z,92443.78
2023-04-11T20:58:31.963Z,92432.53
2023-04-11T21:00:59.264Z,92426.00
2023-04-11T21:03:30.198Z,92426.47
2023-04-11T21:05:56.861Z,92429.91
2023-04-11T21:08:23.669Z,92422.84
2023-04-11T21:10:50.106Z,92416.81
2023-04-11T21:13:16.694Z,92416.00
2023-04-11T21:15:43.155Z,92418.59
2023-04-11T21:18:09.767Z,92418.59
2023-04-11T21:20:39.556Z,92420.69
2023-04-11T21:23:06.068Z,92419.13
2023-04-11T21:25:32.487Z,92421.19
2023-04-11T21:27:58.905Z,92410.41
2023-04-11T21:30:25.419Z,92409.63
2023-04-11T21:32:52.116Z,92409.66
2023-04-11T21:35:18.602Z,92412.53
2023-04-11T21:37:47.059Z,92411.75
2023-04-11T21:40:15.016Z,92406.47
2023-04-11T21:42:41.570Z,92407.00
2023-04-11T21:45:08.665Z,92401.53
2023-04-11T21:47:35.168Z,92401.28
2023-04-11T21:50:01.724Z,92407.59
2023-04-11T21:52:28.200Z,92418.59
2023-04-11T21:54:54.602Z,92410.25
2023-04-11T21:57:21.032Z,92405.28
2023-04-11T21:59:47.434Z,92401.38
2023-04-11T22:02:14.416Z,92402.94
2023-04-11T22:04:51.638Z,92396.69
2023-04-11T22:07:31.606Z,92389.84
2023-04-11T22:10:09.118Z,92385.69
2023-04-11T22:12:36.539Z,92387.81
2023-04-11T22:15:03.772Z,92390.66
2023-04-11T22:17:31.704Z,92388.81
2023-04-11T22:19:58.277Z,92388.28
2023-04-11T22:22:27.765Z,92383.78
2023-04-11T22:24:57.717Z,92377.81
2023-04-11T22:27:26.257Z,92371.28
2023-04-11T22:29:59.720Z,92370.47
2023-04-11T22:32:26.532Z,92369.41
2023-04-11T22:34:53.033Z,92369.41
2023-04-11T22:37:19.488Z,92367.34
2023-04-11T22:39:45.996Z,92350.84
2023-04-11T22:42:12.558Z,92347.47
2023-04-11T22:44:39.122Z,92351.66
2023-04-11T22:47:08.385Z,92357.38
2023-04-11T22:49:41.687Z,92343.28
2023-04-11T22:52:09.290Z,92330.97
2023-04-11T22:54:35.815Z,92332.81
2023-04-11T22:57:02.384Z,92333.81
2023-04-11T22:59:28.877Z,92329.91
2023-04-11T23:01:55.523Z,92323.63
2023-04-11T23:04:22.432Z,92321.00
2023-04-11T23:06:52.023Z,92318.63
2023-04-11T23:09:18.783Z,92313.41
2023-04-11T23:11:48.797Z,92311.59
2023-04-11T23:14:17.922Z,92312.88
2023-04-11T23:16:44.994Z,92313.41
2023-04-11T23:19:11.675Z,92303.97
2023-04-11T23:21:38.156Z,92296.13
2023-04-11T23:24:06.636Z,92296.13
2023-04-11T23:26:33.178Z,92288.28
2023-04-11T23:29:01.065Z,92283.00
2023-04-11T23:31:27.840Z,92282.22
2023-04-11T23:33:54.423Z,92280.38
2023-04-11T23:36:20.914Z,92284.31
2023-04-11T23:38:47.549Z,92281.44
2023-04-11T23:41:14.680Z,92271.78
2023-04-11T23:43:41.141Z,92267.84
2023-04-11T23:46:07.615Z,92263.41
2023-04-11T23:48:34.082Z,92259.97
2023-04-11T23:51:00.544Z,92246.38
2023-04-11T23:53:26.978Z,92245.31
2023-04-11T23:55:53.451Z,92242.19
2023-04-11T23:58:19.916Z,92227.00
